Menu

In Person Flight Instructor Refresher Courses

Air Safety Institute Class

Welcome

Flight Instructor Refresher Course

The AOPA Air Safety Institute In-Person Flight Instructor Refresher Course gives you the opportunity to renew your flight instructor certificate together with other flight instructors in your area. The two day course is led by expert presenters who are knowledgeable and engaging. Not only will you refresh your knowledge and pick up some new information, but you will also be able to network with other local professional pilots.

Location Start Time End Time State Latitude Longitude cssIndex Topic cssIndex
Spokane, WA 01-04-2020 7:30 AM 01-05-2020 5:00 PM Learn More Washington 47.681589000000000 -117.314555000000000 1 mtgFlightInstructorRefresherCourse FIRC_WA_200104
Costa Mesa, CA 01-04-2020 7:30 AM 01-05-2020 5:00 PM Learn More California 33.685262000000000 -117.885804000000000 1 mtgFlightInstructorRefresherCourse FIRC_CA_200104
Charlotte, NC 01-04-2020 7:30 AM 01-05-2020 5:00 PM Learn More North Carolina 35.238391000000000 -80.921739000000000 1 mtgFlightInstructorRefresherCourse FIRC_NC_200104
Portland, OR 01-11-2020 7:30 AM 01-12-2020 5:00 PM Learn More Oregon 45.576093000000000 -122.577490000000000 1 mtgFlightInstructorRefresherCourse FIRC_OR_200111
San Antonio, TX 01-11-2020 7:30 AM 01-12-2020 5:00 PM Learn More Texas 29.505730000000000 -98.544923000000000 1 mtgFlightInstructorRefresherCourse FIRC_TX_200111
Alcoa, TN 01-11-2020 7:30 AM 01-12-2020 5:00 PM Learn More Tennessee 35.803000000000000 -83.995400000000000 1 mtgFlightInstructorRefresherCourse FIRC_TN_200111
Bellevue, WA 01-18-2020 7:30 AM 01-19-2020 5:00 PM Learn More Washington 47.606941000000000 -122.190566000000000 1 mtgFlightInstructorRefresherCourse FIRC_WA_200118
Elkridge, MD 01-18-2020 7:30 AM 01-19-2020 5:00 PM Learn More Maryland 39.184351000000000 -76.755569000000000 1 mtgFlightInstructorRefresherCourse FIRC_MD_200118
Jackson, MS 01-25-2020 7:30 AM 01-26-2020 5:00 PM Learn More Mississippi 32.395700000000000 -90.142800000000000 1 mtgFlightInstructorRefresherCourse FIRC_MS_200125
Romulus, MI 01-25-2020 7:30 AM 01-26-2020 5:00 PM Learn More Michigan 42.244718000000000 -83.347900000000000 1 mtgFlightInstructorRefresherCourse FIRC_MI_200125
Louisville, KY 02-08-2020 7:30 AM 02-09-2020 5:00 PM Learn More Kentucky 38.201342000000000 -85.751663000000000 1 mtgFlightInstructorRefresherCourse FIRC_KY_200208
Sacramento, CA 02-08-2020 7:30 AM 02-09-2020 5:00 PM Learn More California 38.575798000000000 -121.415511000000000 1 mtgFlightInstructorRefresherCourse FIRC_CA_200208
Las Vegas, NV 02-15-2020 7:30 AM 02-16-2020 5:00 PM Learn More Nevada 36.115747000000000 -115.193279000000000 1 mtgFlightInstructorRefresherCourse FIRC_NV_200215
Ft Worth, TX 02-15-2020 7:30 AM 02-16-2020 5:00 PM Learn More Texas 32.821600000000000 -97.312200000000000 1 mtgFlightInstructorRefresherCourse FIRC_TX_200215
Fairfax, VA 02-22-2020 7:30 AM 02-23-2020 5:00 PM Learn More Virginia 38.872942000000000 -77.370502000000000 1 mtgFlightInstructorRefresherCourse FIRC_VA_200222
Nashua, NH 02-22-2020 7:30 AM 02-23-2020 5:00 PM Learn More New Hampshire 42.732596000000000 -71.476379000000000 1 mtgFlightInstructorRefresherCourse FIRC_NH_200222
Orlando, FL 02-22-2020 7:30 AM 02-23-2020 5:00 PM Learn More Florida 28.460206000000000 -81.312706000000000 1 mtgFlightInstructorRefresherCourse FIRC_FL_200222
King Of Prussia, PA 03-14-2020 7:30 AM 03-15-2020 5:00 PM Learn More Pennsylvania 40.089311000000000 -75.388475000000000 1 mtgFlightInstructorRefresherCourse FIRC_PA_200314
Santa Clara, CA 03-14-2020 7:30 AM 03-15-2020 5:00 PM Learn More California 37.382500000000000 -121.979300000000000 1 mtgFlightInstructorRefresherCourse FIRC_CA_200314
Tempe, AZ 03-14-2020 7:30 AM 03-15-2020 5:00 PM Learn More Arizona 33.411417000000000 -111.969673000000000 1 mtgFlightInstructorRefresherCourse FIRC_AZ_200314
Ontario, CA 03-21-2020 7:30 AM 03-22-2020 5:00 PM Learn More California 34.067468000000000 -117.611155000000000 1 mtgFlightInstructorRefresherCourse FIRC_CA_200321
Indianapolis, IN 04-04-2020 7:30 AM 04-05-2020 5:00 PM Learn More Indiana 39.729669000000000 -86.269647000000000 1 mtgFlightInstructorRefresherCourse FIRC_IN_200404
San Diego, CA 04-04-2020 7:30 AM 04-05-2020 5:00 PM Learn More California 32.725703000000000 -117.223193000000000 1 mtgFlightInstructorRefresherCourse FIRC_CA_200404
Atlanta, GA 04-18-2020 7:30 AM 04-19-2020 5:00 PM Learn More Georgia 33.659125000000000 -84.437489000000000 1 mtgFlightInstructorRefresherCourse FIRC_GA_200418
Aurora, CO 04-18-2020 7:30 AM 04-19-2020 5:00 PM Learn More Colorado 39.772009000000000 -104.796186000000000 1 mtgFlightInstructorRefresherCourse FIRC_CO_200418
Dulles, VA 04-18-2020 7:30 AM 04-19-2020 5:00 PM Learn More Virginia 38.985093000000000 -77.429156000000000 1 mtgFlightInstructorRefresherCourse FIRC_VA_200418
Rocky Point, FL 04-18-2020 7:30 AM 04-19-2020 5:00 PM Learn More Florida 27.968849000000000 -82.569091000000000 1 mtgFlightInstructorRefresherCourse FIRC_FL_200418
Dedham, MA 04-25-2020 7:30 AM 04-26-2020 5:00 PM Learn More Massachusetts 42.232028000000000 -71.182748000000000 1 mtgFlightInstructorRefresherCourse FIRC_MA_200425

Questions? Contact us at [email protected] or 800.872.2672
Monday - Friday, 8:30 am - 6:00 pm ET